Seaspan Raider — CFDY — position and weather

sailwx.info

Track history (hours):
 
Tides and Currents Weather Stations Pressure Air Temp Water Temp Dewpoint Dewpoint Depression Visibility Wind Speed Wind Dir Waves Ship Positions

Seaspan Raider

Last reported at 2018-Jun-18 17:12 UTC. Time now 2018-Jun-18 17:38 UTC.
Position N 48°26' W 123°12'.

Length 32 m; draft 4 m.

Type: Tug. MMSI: 316033783.

Date/timePositionNaut miles runAvg speedWind from/ knotsBaromVisibWave heightAir tempDewpointWater temp
2018-Jun-18 17:12N 48°26' W 123°12'53 1.4
2018-Jun-17 02:31N 49°18' W 123°07'0 7.4
2018-Jun-17 02:30N 49°18' W 123°06'0 0.6
2018-Jun-17 02:00N 49°19' W 123°06'0 0.0
2018-Jun-17 01:05N 49°19' W 123°06'0 0.0
2018-Jun-17 00:39N 49°19' W 123°06'0 2.8
2018-Jun-17 00:30N 49°18' W 123°06'1 0.9
2018-Jun-16 23:31N 49°18' W 123°07'0 0.0
2018-Jun-16 18:06N 49°18' W 123°07'0 0.1
2018-Jun-16 18:00N 49°18' W 123°07'0 1.0
2018-Jun-16 17:30N 49°18' W 123°07'37 1.8
2018-Jun-15 21:13N 48°41' W 123°15'2 8.5
2018-Jun-15 20:59N 48°39' W 123°14'8 5.2
2018-Jun-15 19:26N 48°32' W 123°11'2 3.6
2018-Jun-15 18:58N 48°30' W 123°10'2 3.5
2018-Jun-15 18:30N 48°28' W 123°10'2 3.0
2018-Jun-15 18:00N 48°27' W 123°10'2 3.5
2018-Jun-15 17:30N 48°25' W 123°10'2 3.2
2018-Jun-15 16:55N 48°24' W 123°11'1 2.5
2018-Jun-15 16:22N 48°22' W 123°13'0 0.4
2018-Jun-15 16:00N 48°23' W 123°13'41 5.9
2018-Jun-15 09:02N 48°18' W 124°14'2 6.7
2018-Jun-15 08:47N 48°19' W 124°16'3 6.5
2018-Jun-15 08:20N 48°20' W 124°20'3 6.6
2018-Jun-15 07:56N 48°21' W 124°24'3 6.4
2018-Jun-15 07:25N 48°23' W 124°28'3 6.7
2018-Jun-15 07:00N 48°24' W 124°32'3 6.6
2018-Jun-15 06:30N 48°25' W 124°36'3 5.9
2018-Jun-15 06:00N 48°26' W 124°41'3 5.8
2018-Jun-15 05:28N 48°28' W 124°45'3 6.3
2018-Jun-15 04:55N 48°28' W 124°50'  
2018-Jun-09 16:52N 48°27' W 124°46'3 7.4
2018-Jun-09 16:30N 48°26' W 124°42'4 7.2
2018-Jun-09 16:00N 48°24' W 124°38'4 7.7
2018-Jun-09 15:30N 48°23' W 124°32'42 9.2
2018-Jun-09 10:56N 48°13' W 123°31'12 9.1
2018-Jun-09 09:40N 48°20' W 123°16'1 8.8
2018-Jun-09 09:30N 48°21' W 123°15'4 7.8
2018-Jun-09 09:00N 48°24' W 123°12'4 8.6
2018-Jun-09 08:30N 48°28' W 123°12'10 7.6
2018-Jun-09 07:09N 48°38' W 123°15'1 7.6
2018-Jun-09 06:58N 48°40' W 123°15'3 6.5
2018-Jun-09 06:30N 48°43' W 123°14'36 5.2
2018-Jun-08 23:31N 49°19' W 123°08'1 8.3
2018-Jun-08 23:27N 49°18' W 123°07'1 0.9
2018-Jun-08 22:39N 49°19' W 123°06'0 0.0
2018-Jun-08 22:27N 49°19' W 123°06'0 0.2
2018-Jun-08 21:59N 49°19' W 123°06'0 0.0
2018-Jun-08 21:11N 49°19' W 123°06'0 0.0
2018-Jun-08 20:54N 49°19' W 123°06'0 0.0
2018-Jun-08 20:26N 49°19' W 123°06'0 0.0
2018-Jun-08 18:43N 49°19' W 123°06'0 0.1
2018-Jun-08 18:27N 49°19' W 123°06'  
Track history (hours):
 
Tides and Currents Weather Stations Pressure Air Temp Water Temp Dewpoint Dewpoint Depression Visibility Wind Speed Wind Dir Waves Ship Positions

Seaspan Raider

Last reported at 2018-Jun-18 17:12 UTC. Time now 2018-Jun-18 17:38 UTC.
Position N 48°26' W 123°12'.

Length 32 m; draft 4 m.

Type: Tug. MMSI: 316033783.

Date/timePositionNaut miles runAvg speedWind from/ knotsBaromVisibWave heightAir tempDewpointWater temp
2018-Jun-18 17:12N 48°26' W 123°12'53 1.4
2018-Jun-17 02:31N 49°18' W 123°07'0 7.4
2018-Jun-17 02:30N 49°18' W 123°06'0 0.6
2018-Jun-17 02:00N 49°19' W 123°06'0 0.0
2018-Jun-17 01:05N 49°19' W 123°06'0 0.0
2018-Jun-17 00:39N 49°19' W 123°06'0 2.8
2018-Jun-17 00:30N 49°18' W 123°06'1 0.9
2018-Jun-16 23:31N 49°18' W 123°07'0 0.0
2018-Jun-16 18:06N 49°18' W 123°07'0 0.1
2018-Jun-16 18:00N 49°18' W 123°07'0 1.0
2018-Jun-16 17:30N 49°18' W 123°07'37 1.8
2018-Jun-15 21:13N 48°41' W 123°15'2 8.5
2018-Jun-15 20:59N 48°39' W 123°14'8 5.2
2018-Jun-15 19:26N 48°32' W 123°11'2 3.6
2018-Jun-15 18:58N 48°30' W 123°10'2 3.5
2018-Jun-15 18:30N 48°28' W 123°10'2 3.0
2018-Jun-15 18:00N 48°27' W 123°10'2 3.5
2018-Jun-15 17:30N 48°25' W 123°10'2 3.2
2018-Jun-15 16:55N 48°24' W 123°11'1 2.5
2018-Jun-15 16:22N 48°22' W 123°13'0 0.4
2018-Jun-15 16:00N 48°23' W 123°13'41 5.9
2018-Jun-15 09:02N 48°18' W 124°14'2 6.7
2018-Jun-15 08:47N 48°19' W 124°16'3 6.5
2018-Jun-15 08:20N 48°20' W 124°20'3 6.6
2018-Jun-15 07:56N 48°21' W 124°24'3 6.4
2018-Jun-15 07:25N 48°23' W 124°28'3 6.7
2018-Jun-15 07:00N 48°24' W 124°32'3 6.6
2018-Jun-15 06:30N 48°25' W 124°36'3 5.9
2018-Jun-15 06:00N 48°26' W 124°41'3 5.8
2018-Jun-15 05:28N 48°28' W 124°45'3 6.3
2018-Jun-15 04:55N 48°28' W 124°50'  
2018-Jun-09 16:52N 48°27' W 124°46'3 7.4
2018-Jun-09 16:30N 48°26' W 124°42'4 7.2
2018-Jun-09 16:00N 48°24' W 124°38'4 7.7
2018-Jun-09 15:30N 48°23' W 124°32'42 9.2
2018-Jun-09 10:56N 48°13' W 123°31'12 9.1
2018-Jun-09 09:40N 48°20' W 123°16'1 8.8
2018-Jun-09 09:30N 48°21' W 123°15'4 7.8
2018-Jun-09 09:00N 48°24' W 123°12'4 8.6
2018-Jun-09 08:30N 48°28' W 123°12'10 7.6
2018-Jun-09 07:09N 48°38' W 123°15'1 7.6
2018-Jun-09 06:58N 48°40' W 123°15'3 6.5
2018-Jun-09 06:30N 48°43' W 123°14'36 5.2
2018-Jun-08 23:31N 49°19' W 123°08'1 8.3
2018-Jun-08 23:27N 49°18' W 123°07'1 0.9
2018-Jun-08 22:39N 49°19' W 123°06'0 0.0
2018-Jun-08 22:27N 49°19' W 123°06'0 0.2
2018-Jun-08 21:59N 49°19' W 123°06'0 0.0
2018-Jun-08 21:11N 49°19' W 123°06'0 0.0
2018-Jun-08 20:54N 49°19' W 123°06'0 0.0
2018-Jun-08 20:26N 49°19' W 123°06'0 0.0
2018-Jun-08 18:43N 49°19' W 123°06'0 0.1
2018-Jun-08 18:27N 49°19' W 123°06'  

Dump ship's entire track history